Inez, Texas
Current Conditions -  °F | °C
As of 7:51 AM on Thursday 23 Oct 2014 (Local Time) from KVCT Reporting Station
Haze Haze  
Wind Chill: 63°   Ceiling: Unl
Heat Index: 63°   Visibility: 5mi
Dew Point: 59°   Wind: 3mph
Humidity: 87%   Direction: 350°N
Pressure: 30.1"   Gusts: NA
Location:  28.9°N, 96.79°W
Report Text: KVCT 231251Z 35003KT 5SM BR SCT095 17/15 A3010 RMK AO2 SLP190 T01720150
Loading
Personal Weather Stations






























Interactive Weather Map
Tropical Storm Tracking
New forecast layout! Learn more

10-Day Weather Forecast

Advertisements
Track Severe Weather on mobile